Time;durP1;ratioP1;P1;durP2;ratioP2;P2;SDS_P1;SDS_P2;PMS_P1;PMS_P2;Temp;Humidity;BMP_temperature;BMP_pressure;BME280_temperature;BME280_humidity;BME280_pressure;Samples;Min_cycle;Max_cycle;Signal;HPM_P1;HPM_P2
2022/12/13 00:01:57;;;;;;;49.50;23.23;;;-3.30;99.90;;;;;;5015055;28;20080;-81
2022/12/13 00:04:23;;;;;;;53.75;24.25;;;-3.20;99.90;;;;;;5016745;28;20064;-81
2022/12/13 00:06:50;;;;;;;42.70;20.88;;;-3.30;99.90;;;;;;5016656;28;20038;-81
2022/12/13 00:09:17;;;;;;;45.60;22.98;;;-3.20;99.90;;;;;;5015836;28;20117;-81
2022/12/13 00:11:43;;;;;;;52.53;22.88;;;-2.80;99.90;;;;;;5016567;28;20045;-81
2022/12/13 00:14:12;;;;;;;48.65;23.35;;;-3.20;99.90;;;;;;5015224;28;20045;-81
2022/12/13 00:16:39;;;;;;;47.80;22.70;;;-3.30;99.90;;;;;;5016435;28;20045;-81
2022/12/13 00:19:05;;;;;;;49.67;21.48;;;-3.20;99.90;;;;;;5016836;28;20093;-80
2022/12/13 00:21:32;;;;;;;50.97;22.90;;;-3.30;99.90;;;;;;5016685;28;21148;-81
2022/12/13 00:24:01;;;;;;;54.33;23.35;;;-3.20;99.90;;;;;;5015969;28;20042;-81
2022/12/13 00:26:31;;;;;;;48.20;21.70;;;-3.20;99.90;;;;;;5016486;28;20042;-81
2022/12/13 00:29:02;;;;;;;49.55;22.88;;;-2.90;99.90;;;;;;5014909;28;20073;-81
2022/12/13 00:31:30;;;;;;;46.03;21.50;;;-3.30;99.90;;;;;;5019543;28;20041;-81
2022/12/13 00:33:59;;;;;;;47.75;22.35;;;-3.30;99.90;;;;;;5016724;28;20053;-81
2022/12/13 00:36:25;;;;;;;42.35;21.20;;;-3.30;99.90;;;;;;5016008;28;20069;-81
2022/12/13 00:38:59;;;;;;;45.70;21.20;;;-3.30;99.90;;;;;;5018459;28;20053;-81
2022/12/13 00:41:27;;;;;;;43.25;20.58;;;-3.30;99.90;;;;;;5020569;28;20037;-81
2022/12/13 00:43:53;;;;;;;47.63;20.92;;;-3.30;99.90;;;;;;5015621;28;20045;-81
2022/12/13 00:46:21;;;;;;;43.97;20.58;;;-3.30;99.90;;;;;;5018688;28;20388;-81
2022/12/13 00:49:00;;;;;;;44.30;19.60;;;-3.30;99.90;;;;;;5000900;28;20037;-81
2022/12/13 00:51:27;;;;;;;49.50;21.80;;;-3.40;99.90;;;;;;5018647;28;20156;-81
2022/12/13 00:53:53;;;;;;;49.72;22.48;;;-3.30;99.90;;;;;;5019806;28;20041;-81
2022/12/13 00:56:24;;;;;;;44.70;19.80;;;-3.40;99.90;;;;;;5017597;28;20045;-81
2022/12/13 00:58:50;;;;;;;46.28;21.23;;;-3.40;99.90;;;;;;5020141;28;20045;-81
2022/12/13 01:01:18;;;;;;;43.35;20.88;;;-3.40;99.90;;;;;;5015527;28;20095;-80
2022/12/13 01:03:44;;;;;;;43.15;20.27;;;-3.40;99.90;;;;;;5012639;28;20049;-81
2022/12/13 01:06:17;;;;;;;43.20;20.45;;;-3.50;99.90;;;;;;5018106;28;20072;-81
2022/12/13 01:08:43;;;;;;;44.10;19.80;;;-3.50;99.90;;;;;;5021284;28;20085;-80
2022/12/13 01:11:10;;;;;;;39.53;19.90;;;-3.50;99.90;;;;;;5020070;28;20051;-81
2022/12/13 01:13:36;;;;;;;44.80;20.83;;;-3.50;99.90;;;;;;5024249;28;20069;-81
2022/12/13 01:16:04;;;;;;;46.95;20.40;;;-3.30;99.90;;;;;;5019704;28;20083;-81
2022/12/13 01:18:30;;;;;;;46.72;20.98;;;-3.50;99.90;;;;;;5016387;28;20044;-81
2022/12/13 01:21:00;;;;;;;41.65;20.20;;;-3.50;99.90;;;;;;5019117;28;20427;-81
2022/12/13 01:23:26;;;;;;;44.63;18.83;;;-3.50;99.90;;;;;;5024608;28;20029;-81
2022/12/13 01:25:52;;;;;;;40.80;19.90;;;-3.50;99.90;;;;;;5023979;28;20061;-81
2022/12/13 01:28:17;;;;;;;41.35;19.45;;;-2.70;99.90;;;;;;5019257;28;20053;-81
2022/12/13 01:30:43;;;;;;;43.20;19.90;;;-3.60;99.90;;;;;;5013049;28;20062;-81
2022/12/13 01:33:09;;;;;;;41.75;20.30;;;-3.60;99.90;;;;;;5018583;28;20128;-81
2022/12/13 01:35:35;;;;;;;45.15;19.27;;;-3.70;99.90;;;;;;5022656;28;20060;-81
2022/12/13 01:38:00;;;;;;;44.03;20.40;;;-3.70;99.90;;;;;;5015279;28;20496;-81
2022/12/13 01:40:26;;;;;;;37.72;18.90;;;-3.70;99.90;;;;;;5014478;28;20745;-80
2022/12/13 01:42:52;;;;;;;37.38;17.42;;;-3.80;99.90;;;;;;5016101;28;20050;-81
2022/12/13 01:45:24;;;;;;;38.58;18.42;;;-3.80;99.90;;;;;;5021186;28;20037;-81
2022/12/13 01:47:58;;;;;;;43.78;19.77;;;-3.80;99.90;;;;;;5012416;28;20042;-81
2022/12/13 01:50:28;;;;;;;40.33;19.13;;;-3.80;99.90;;;;;;5014449;28;20038;-81
2022/12/13 01:52:55;;;;;;;40.60;18.70;;;-3.90;99.90;;;;;;5020849;28;20045;-81
2022/12/13 01:55:24;;;;;;;38.90;18.45;;;-3.90;99.90;;;;;;5019535;28;20048;-81
2022/12/13 01:57:51;;;;;;;43.08;17.98;;;-3.90;99.90;;;;;;5018538;28;20365;-81
2022/12/13 02:00:18;;;;;;;33.72;17.45;;;-3.80;99.90;;;;;;5020697;28;20037;-81
2022/12/13 02:02:44;;;;;;;35.05;17.52;;;-4.00;99.90;;;;;;5020587;28;20128;-81
2022/12/13 02:05:38;;;;;;;42.00;20.48;;;-3.90;99.90;;;;;;5016413;28;20041;-80
2022/12/13 02:08:04;;;;;;;47.38;20.13;;;-4.00;99.90;;;;;;5011189;28;20072;-80
2022/12/13 02:10:31;;;;;;;34.58;17.95;;;-3.70;99.90;;;;;;5021687;28;20036;-81
2022/12/13 02:12:57;;;;;;;38.25;17.48;;;-4.00;99.90;;;;;;5013012;28;20134;-81
2022/12/13 02:15:31;;;;;;;41.28;18.33;;;-4.00;99.90;;;;;;5023030;28;20139;-81
2022/12/13 02:18:04;;;;;;;36.43;17.97;;;-4.00;99.90;;;;;;5015069;28;20049;-81
2022/12/13 02:20:37;;;;;;;38.20;18.40;;;-2.90;99.90;;;;;;5009430;28;20037;-80
2022/12/13 02:23:30;;;;;;;38.35;18.92;;;-4.10;99.90;;;;;;5018151;28;20049;-81
2022/12/13 02:26:13;;;;;;;41.70;18.13;;;-4.10;99.90;;;;;;5023602;28;20090;-80
2022/12/13 02:29:18;;;;;;;42.65;17.42;;;-4.10;99.90;;;;;;5016927;28;20041;-81
2022/12/13 02:32:13;;;;;;;35.00;16.60;;;-4.20;99.90;;;;;;5015830;28;20740;-81
2022/12/13 02:34:47;;;;;;;38.38;18.30;;;-4.20;99.90;;;;;;5015627;28;20049;-81
2022/12/13 02:37:52;;;;;;;34.83;16.85;;;-4.20;99.90;;;;;;5014494;28;20519;-81
2022/12/13 02:40:33;;;;;;;38.53;17.88;;;-4.20;99.90;;;;;;4974121;28;20045;-81
2022/12/13 02:43:21;;;;;;;37.65;18.00;;;-4.20;99.90;;;;;;5020312;28;20152;-81
2022/12/13 02:45:50;;;;;;;34.47;17.73;;;-4.30;99.90;;;;;;5018636;28;20059;-81
2022/12/13 02:48:25;;;;;;;36.80;17.73;;;-4.20;99.90;;;;;;5014965;28;20117;-81
2022/12/13 02:50:52;;;;;;;40.70;18.67;;;-4.30;99.90;;;;;;5018934;28;20513;-80
2022/12/13 02:53:21;;;;;;;37.10;18.65;;;-4.30;99.90;;;;;;5014873;28;20491;-81
2022/12/13 02:55:47;;;;;;;38.13;17.02;;;-4.30;99.90;;;;;;5037103;28;20049;-81
2022/12/13 02:58:18;;;;;;;36.53;18.15;;;-4.30;99.90;;;;;;5020952;28;20046;-81
2022/12/13 03:01:18;;;;;;;35.65;17.13;;;-4.30;99.90;;;;;;5017119;28;20041;-81
2022/12/13 03:04:07;;;;;;;39.17;18.02;;;-4.30;99.90;;;;;;5016411;28;20049;-81
2022/12/13 03:07:09;;;;;;;40.35;17.88;;;-4.30;99.90;;;;;;5016148;28;20038;-81
2022/12/13 03:10:04;;;;;;;38.47;17.98;;;-4.30;99.90;;;;;;4956417;28;20059;-80
2022/12/13 03:15:55;;;;;;;39.13;18.40;;;-4.20;99.90;;;;;;4956502;28;20074;-81
2022/12/13 03:18:23;;;;;;;34.75;18.13;;;-4.20;99.90;;;;;;4965811;28;20043;-81
2022/12/13 03:20:56;;;;;;;41.28;18.85;;;-4.20;99.90;;;;;;4981667;28;20516;-80
2022/12/13 03:23:23;;;;;;;38.90;18.73;;;-4.20;99.90;;;;;;4948678;28;20050;-81
2022/12/13 03:25:54;;;;;;;34.97;17.77;;;-4.20;99.90;;;;;;4963695;28;20130;-81
2022/12/13 03:28:21;;;;;;;42.17;17.23;;;-4.20;99.90;;;;;;4981037;28;20038;-81
2022/12/13 03:30:46;;;;;;;36.17;17.52;;;-3.80;99.90;;;;;;4954711;28;20543;-81
2022/12/13 03:33:12;;;;;;;39.10;19.15;;;-4.30;99.90;;;;;;4982131;28;20761;-80
2022/12/13 03:35:42;;;;;;;40.53;18.85;;;-5.20;99.90;;;;;;4965223;28;20704;-81
2022/12/13 03:38:15;;;;;;;37.38;18.75;;;-4.20;99.90;;;;;;4963532;28;20053;-81
2022/12/13 03:40:40;;;;;;;37.20;17.95;;;-4.20;99.90;;;;;;4985710;28;20134;-81
2022/12/13 03:43:06;;;;;;;40.05;18.17;;;-4.30;99.90;;;;;;4965861;28;20497;-80
2022/12/13 03:45:32;;;;;;;35.88;16.70;;;-4.30;99.90;;;;;;4974943;28;20411;-81
2022/12/13 03:47:58;;;;;;;39.65;18.65;;;-4.60;99.90;;;;;;5013570;28;20045;-81
2022/12/13 03:50:23;;;;;;;41.28;18.83;;;-4.30;99.90;;;;;;5035504;28;20038;-80
2022/12/13 03:52:52;;;;;;;34.67;17.05;;;-4.30;99.90;;;;;;5019669;28;20041;-81
2022/12/13 03:55:18;;;;;;;33.60;17.25;;;-4.30;99.90;;;;;;5025175;28;20042;-81
2022/12/13 03:57:43;;;;;;;40.38;18.23;;;-4.40;99.90;;;;;;5017627;28;20044;-81
2022/12/13 04:00:10;;;;;;;40.25;18.95;;;-4.60;99.90;;;;;;5018688;28;20033;-80
2022/12/13 04:02:35;;;;;;;34.53;17.63;;;-4.40;99.90;;;;;;5021568;28;20379;-80
2022/12/13 04:05:01;;;;;;;35.63;18.17;;;-4.40;99.90;;;;;;5014674;28;20033;-80
2022/12/13 04:07:27;;;;;;;41.33;19.17;;;-4.40;99.90;;;;;;5019944;28;20067;-80
2022/12/13 04:09:52;;;;;;;42.65;18.95;;;-4.40;99.90;;;;;;5023185;28;20128;-81
2022/12/13 04:15:02;;;;;;;38.15;18.88;;;-4.40;99.90;;;;;;5020301;28;20388;-81
2022/12/13 04:17:28;;;;;;;39.22;19.13;;;-4.30;99.90;;;;;;5030639;28;20046;-81
2022/12/13 04:19:54;;;;;;;38.38;19.13;;;-4.40;99.90;;;;;;5031649;28;21571;-80
2022/12/13 04:22:19;;;;;;;35.83;17.75;;;-3.80;99.90;;;;;;5018902;28;20087;-81
2022/12/13 04:24:45;;;;;;;33.22;17.83;;;-4.40;99.90;;;;;;5024751;28;20061;-81
2022/12/13 04:27:11;;;;;;;38.22;17.55;;;-4.30;99.90;;;;;;5016177;28;20943;-81
2022/12/13 04:29:36;;;;;;;44.75;25.80;;;-4.30;99.90;;;;;;5021053;28;20069;-81
2022/12/13 04:32:05;;;;;;;44.92;20.95;;;-4.10;99.90;;;;;;5005495;28;20128;-81
2022/12/13 04:34:31;;;;;;;42.75;23.45;;;-4.30;99.90;;;;;;5025489;28;20056;-81
2022/12/13 04:36:56;;;;;;;38.33;19.45;;;-4.40;99.90;;;;;;5007560;28;20041;-81
2022/12/13 04:39:22;;;;;;;35.72;17.98;;;-4.40;99.90;;;;;;5020798;28;20045;-80
2022/12/13 04:41:49;;;;;;;36.05;18.58;;;-4.40;99.90;;;;;;5019029;28;20053;-81
2022/12/13 04:44:15;;;;;;;34.05;19.77;;;-4.30;99.90;;;;;;5021500;28;20065;-81
2022/12/13 04:46:41;;;;;;;34.78;18.08;;;-4.40;99.90;;;;;;5017817;28;20468;-80
2022/12/13 04:49:07;;;;;;;39.72;18.48;;;-4.40;99.90;;;;;;5016122;28;20037;-81
2022/12/13 04:51:32;;;;;;;33.90;18.70;;;-4.40;99.90;;;;;;5020433;28;20057;-81
2022/12/13 04:53:58;;;;;;;35.15;18.40;;;-4.40;99.90;;;;;;5018305;28;20045;-80
2022/12/13 04:56:24;;;;;;;38.88;19.63;;;-4.40;99.90;;;;;;5016510;28;20034;-81
2022/12/13 04:58:50;;;;;;;37.47;19.30;;;-4.30;99.90;;;;;;5017696;28;20049;-82
2022/12/13 05:01:15;;;;;;;34.20;17.30;;;-4.40;99.90;;;;;;5014170;28;20135;-81
2022/12/13 05:03:41;;;;;;;36.08;18.38;;;-4.40;99.90;;;;;;5029546;28;20046;-81
2022/12/13 05:06:10;;;;;;;36.15;17.15;;;-4.40;99.90;;;;;;5017136;28;20041;-81
2022/12/13 05:08:36;;;;;;;34.28;17.83;;;-4.40;99.90;;;;;;5019058;28;20046;-80
2022/12/13 05:11:04;;;;;;;38.08;19.65;;;-4.40;99.90;;;;;;5013946;28;20038;-81
2022/12/13 05:13:29;;;;;;;36.60;17.88;;;-4.50;99.90;;;;;;5016258;28;20045;-81
2022/12/13 05:16:04;;;;;;;35.00;17.50;;;-4.50;99.90;;;;;;5016630;28;20113;-81
2022/12/13 05:18:30;;;;;;;;;;;-4.50;99.90;;;;;;5019761;28;20497;-81
2022/12/13 05:20:55;;;;;;;36.47;16.90;;;-4.50;99.90;;;;;;5017781;28;19949;-81
2022/12/13 05:23:23;;;;;;;39.47;19.70;;;-4.50;99.90;;;;;;5017111;28;20705;-81
2022/12/13 05:25:50;;;;;;;36.78;20.05;;;-4.50;99.90;;;;;;5022802;28;20498;-80
2022/12/13 05:28:15;;;;;;;39.22;17.92;;;-4.50;99.90;;;;;;5015048;28;20034;-81
2022/12/13 05:30:42;;;;;;;43.83;18.23;;;-4.50;99.90;;;;;;5016163;28;20376;-80
2022/12/13 05:33:09;;;;;;;35.03;18.02;;;-4.50;99.90;;;;;;5019960;28;20108;-80
2022/12/13 05:35:35;;;;;;;36.13;17.70;;;-4.50;99.90;;;;;;5012645;28;20041;-80
2022/12/13 05:38:01;;;;;;;42.65;19.48;;;-4.50;99.90;;;;;;5019261;28;20037;-80
2022/12/13 05:40:29;;;;;;;39.05;18.15;;;-4.50;99.90;;;;;;5011129;28;20104;-80
2022/12/13 05:42:54;;;;;;;38.22;18.00;;;-4.40;99.90;;;;;;5017971;28;20038;-80
2022/12/13 05:45:20;;;;;;;42.10;18.63;;;-4.40;99.90;;;;;;5014190;28;20120;-80
2022/12/13 05:47:46;;;;;;;37.30;19.48;;;-4.40;99.90;;;;;;5010844;28;20049;-80
2022/12/13 05:50:14;;;;;;;37.55;19.10;;;-4.50;99.90;;;;;;5018257;28;20057;-79
2022/12/13 05:52:41;;;;;;;38.80;18.90;;;-4.50;99.90;;;;;;5015805;28;20108;-82
2022/12/13 05:55:07;;;;;;;34.55;18.42;;;-4.50;99.90;;;;;;5020351;28;20033;-81
2022/12/13 05:57:33;;;;;;;34.85;17.08;;;-4.50;99.90;;;;;;5016106;28;20043;-82
2022/12/13 05:59:58;;;;;;;34.75;19.35;;;-4.50;99.90;;;;;;5021456;28;20140;-82
2022/12/13 06:02:24;;;;;;;35.65;18.33;;;-4.60;99.90;;;;;;5013347;28;20030;-80
2022/12/13 06:04:50;;;;;;;34.47;17.80;;;-3.20;99.90;;;;;;5022025;28;20037;-81
2022/12/13 06:07:15;;;;;;;37.30;19.55;;;-4.50;99.90;;;;;;5019109;28;20077;-81
2022/12/13 06:09:41;;;;;;;35.33;18.23;;;-4.50;99.90;;;;;;5019557;28;20080;-81
2022/12/13 06:12:08;;;;;;;37.80;18.60;;;-4.50;99.90;;;;;;5020993;28;20127;-81
2022/12/13 06:14:34;;;;;;;39.63;19.77;;;-4.50;99.90;;;;;;5018079;28;20034;-82
2022/12/13 06:17:00;;;;;;;38.85;19.02;;;-4.50;99.90;;;;;;5013243;28;20057;-80
2022/12/13 06:19:26;;;;;;;39.95;19.73;;;-4.50;99.90;;;;;;5017721;28;20034;-82
2022/12/13 06:21:53;;;;;;;36.88;19.70;;;-4.20;99.90;;;;;;5022680;28;20482;-81
2022/12/13 06:24:20;;;;;;;36.53;17.95;;;-4.50;99.90;;;;;;5020137;28;20085;-82
2022/12/13 06:26:47;;;;;;;38.00;18.73;;;-4.50;99.90;;;;;;5014805;28;20040;-82
2022/12/13 06:29:14;;;;;;;35.17;17.48;;;-4.50;99.90;;;;;;5019974;28;20060;-80
2022/12/13 06:31:39;;;;;;;39.08;18.83;;;-4.60;99.90;;;;;;5020507;28;20072;-82
2022/12/13 06:34:05;;;;;;;38.88;17.80;;;-4.60;99.90;;;;;;5002857;28;20489;-82
2022/12/13 06:36:31;;;;;;;39.58;19.00;;;-4.60;99.90;;;;;;5021709;28;20040;-82
2022/12/13 06:39:04;;;;;;;34.90;17.58;;;-4.60;99.90;;;;;;5014997;28;20099;-83
2022/12/13 06:41:30;;;;;;;37.37;18.87;;;-4.60;99.90;;;;;;5021716;28;20041;-82
2022/12/13 06:43:57;;;;;;;37.83;18.63;;;-4.60;99.90;;;;;;5018003;28;20105;-84
2022/12/13 06:46:22;;;;;;;36.25;19.70;;;-4.60;99.90;;;;;;5012857;28;20507;-85
2022/12/13 06:48:48;;;;;;;38.97;19.65;;;-4.60;99.90;;;;;;5024042;28;20081;-85
2022/12/13 06:51:15;;;;;;;40.75;18.88;;;-4.60;99.90;;;;;;5007775;28;20040;-85
2022/12/13 06:53:40;;;;;;;39.17;18.35;;;-4.60;99.90;;;;;;5022978;28;20049;-85
2022/12/13 06:56:12;;;;;;;36.80;19.00;;;-4.60;99.90;;;;;;5017904;28;20037;-85
2022/12/13 06:58:39;;;;;;;42.00;19.67;;;-4.60;99.90;;;;;;5022689;28;20041;-82
2022/12/13 07:01:10;;;;;;;39.78;19.90;;;-4.60;99.90;;;;;;5020657;28;20046;-83
2022/12/13 07:03:36;;;;;;;40.45;18.63;;;-4.60;99.90;;;;;;5020409;28;20041;-82
2022/12/13 07:06:17;;;;;;;43.10;20.65;;;-4.60;99.90;;;;;;5019197;28;20050;-81
2022/12/13 07:08:49;;;;;;;39.00;20.08;;;-4.60;99.90;;;;;;5022453;28;20045;-84
2022/12/13 07:11:17;;;;;;;39.45;18.98;;;-4.60;99.90;;;;;;5020117;28;20049;-83
2022/12/13 07:13:43;;;;;;;45.72;20.40;;;-4.60;99.90;;;;;;5016489;28;20124;-82
2022/12/13 07:16:10;;;;;;;39.13;21.50;;;-4.60;99.90;;;;;;5025081;28;20551;-82
2022/12/13 07:18:35;;;;;;;41.80;20.42;;;-4.60;99.90;;;;;;5019967;28;20053;-82
2022/12/13 07:21:06;;;;;;;38.78;19.15;;;-4.60;99.90;;;;;;5021459;28;20033;-86
2022/12/13 07:23:34;;;;;;;41.75;22.02;;;-4.60;99.90;;;;;;5019565;28;20049;-84
2022/12/13 07:25:59;;;;;;;38.58;19.08;;;-4.60;99.90;;;;;;5013160;28;20100;-82
2022/12/13 07:28:25;;;;;;;41.20;18.70;;;-4.60;99.90;;;;;;5016004;28;20472;-81
2022/12/13 07:30:51;;;;;;;41.20;19.65;;;-4.60;99.90;;;;;;5015784;28;20038;-82
2022/12/13 07:33:16;;;;;;;40.22;21.17;;;-4.60;99.90;;;;;;5022729;28;20152;-81
2022/12/13 07:35:42;;;;;;;48.05;24.88;;;-4.60;99.90;;;;;;5020881;28;20145;-83
2022/12/13 07:38:09;;;;;;;40.50;21.23;;;-4.60;99.90;;;;;;5017151;28;20140;-82
2022/12/13 07:40:36;;;;;;;43.63;21.17;;;-4.60;99.90;;;;;;5017045;28;20042;-82
2022/12/13 07:43:03;;;;;;;44.45;22.73;;;-4.60;99.90;;;;;;5011763;28;20054;-82
2022/12/13 07:45:28;;;;;;;46.67;22.58;;;-4.50;99.90;;;;;;5011442;28;20100;-82
2022/12/13 07:47:54;;;;;;;48.95;21.92;;;-4.60;99.90;;;;;;5015084;28;20072;-82
2022/12/13 07:50:20;;;;;;;48.22;22.20;;;-4.60;99.90;;;;;;5015780;28;20127;-82
2022/12/13 07:52:49;;;;;;;43.97;22.38;;;-4.50;99.90;;;;;;5008959;28;20038;-82
2022/12/13 07:55:17;;;;;;;51.70;23.92;;;-4.60;99.90;;;;;;5014749;28;20060;-82
2022/12/13 07:57:43;;;;;;;39.53;21.33;;;-4.60;99.90;;;;;;5008918;28;20044;-82
2022/12/13 08:00:10;;;;;;;44.85;22.55;;;-4.60;99.90;;;;;;5014501;28;20069;-82
2022/12/13 08:02:35;;;;;;;38.92;19.73;;;-4.60;99.90;;;;;;5018491;28;20484;-82
2022/12/13 08:05:01;;;;;;;45.80;21.95;;;-4.60;99.90;;;;;;5017492;28;20110;-82
2022/12/13 08:07:27;;;;;;;44.45;20.95;;;-4.50;99.90;;;;;;5011504;28;20033;-82
2022/12/13 08:09:54;;;;;;;45.72;20.75;;;-4.60;99.90;;;;;;5015315;28;20415;-82
2022/12/13 08:12:20;;;;;;;40.50;20.50;;;-4.60;99.90;;;;;;5017449;28;20084;-82
2022/12/13 08:14:46;;;;;;;44.22;21.75;;;-4.60;99.90;;;;;;5012964;28;20084;-82
2022/12/13 08:17:11;;;;;;;44.28;21.83;;;-4.50;99.90;;;;;;5017726;28;20049;-82
2022/12/13 08:19:37;;;;;;;52.50;21.80;;;-4.50;99.90;;;;;;5011679;28;20038;-82
2022/12/13 08:22:03;;;;;;;42.03;21.65;;;-4.50;99.90;;;;;;5011310;28;20050;-82
2022/12/13 08:24:30;;;;;;;43.05;21.35;;;-4.50;99.90;;;;;;5012688;28;20084;-81
2022/12/13 08:27:00;;;;;;;46.15;22.42;;;-4.40;99.90;;;;;;5011004;28;20044;-82
2022/12/13 08:29:27;;;;;;;45.22;21.90;;;-4.40;99.90;;;;;;5017415;28;20083;-82
2022/12/13 08:31:52;;;;;;;42.22;21.20;;;-4.40;99.90;;;;;;5011240;28;20124;-82
2022/12/13 08:34:18;;;;;;;44.35;22.52;;;-4.30;99.90;;;;;;5011136;28;20129;-82
2022/12/13 08:36:43;;;;;;;40.47;20.80;;;-4.40;99.90;;;;;;5009568;28;20096;-82
2022/12/13 08:39:09;;;;;;;44.65;21.63;;;-4.30;99.90;;;;;;5013295;28;20483;-82
2022/12/13 08:41:34;;;;;;;44.25;22.95;;;-4.20;99.90;;;;;;5015507;28;20042;-82
2022/12/13 08:44:00;;;;;;;46.95;23.88;;;-4.20;99.90;;;;;;5016495;28;20417;-82
2022/12/13 08:46:26;;;;;;;48.00;22.42;;;-4.10;99.90;;;;;;5010889;28;20038;-82
2022/12/13 08:48:54;;;;;;;45.92;21.80;;;-4.10;99.90;;;;;;5013592;28;20073;-82
2022/12/13 08:51:24;;;;;;;57.83;24.83;;;-4.10;99.90;;;;;;5016077;28;20130;-82
2022/12/13 08:53:52;;;;;;;51.05;25.48;;;-4.00;99.90;;;;;;5010040;28;20044;-82
2022/12/13 08:56:18;;;;;;;48.58;23.05;;;-3.90;99.90;;;;;;5012833;28;20556;-82
2022/12/13 08:58:47;;;;;;;49.38;23.58;;;-3.90;99.90;;;;;;5019519;28;20030;-82
2022/12/13 09:01:13;;;;;;;54.83;23.30;;;-3.90;99.90;;;;;;5011014;28;20591;-81
2022/12/13 09:03:38;;;;;;;48.72;24.35;;;-3.80;99.90;;;;;;5013886;28;20076;-82
2022/12/13 09:06:10;;;;;;;47.90;23.77;;;-3.70;99.90;;;;;;5009918;28;20041;-82
2022/12/13 09:08:36;;;;;;;48.35;24.33;;;-3.70;99.90;;;;;;5010174;28;20089;-82
2022/12/13 09:11:03;;;;;;;52.10;24.23;;;-3.60;99.90;;;;;;5010443;28;20448;-82
2022/12/13 09:13:31;;;;;;;48.47;24.80;;;-3.60;99.90;;;;;;5013382;28;20510;-82
2022/12/13 09:15:58;;;;;;;55.92;28.25;;;-3.60;99.90;;;;;;5011278;28;20139;-82
2022/12/13 09:18:24;;;;;;;56.10;26.60;;;-3.50;99.90;;;;;;5012650;28;20073;-82
2022/12/13 09:20:50;;;;;;;54.17;24.50;;;-3.50;99.90;;;;;;5009768;28;20496;-82
2022/12/13 09:23:15;;;;;;;54.25;24.00;;;-3.50;99.90;;;;;;4995122;28;20135;-82
2022/12/13 09:25:41;;;;;;;47.10;23.60;;;-3.50;99.90;;;;;;5014331;28;20755;-82
2022/12/13 09:28:08;;;;;;;44.90;23.73;;;-3.40;99.90;;;;;;5014526;28;20383;-82
2022/12/13 09:30:35;;;;;;;55.22;25.80;;;-3.40;99.90;;;;;;5015278;28;20083;-81
2022/12/13 09:33:01;;;;;;;55.60;25.35;;;-3.30;99.90;;;;;;5013050;28;20396;-82
2022/12/13 09:35:26;;;;;;;51.42;27.65;;;-3.30;99.90;;;;;;5015208;28;20045;-81
2022/12/13 09:37:53;;;;;;;51.10;25.85;;;-3.20;99.90;;;;;;5013059;28;20700;-82
2022/12/13 09:40:24;;;;;;;58.78;24.33;;;-3.30;99.90;;;;;;5014803;28;20452;-82
2022/12/13 09:42:53;;;;;;;51.63;23.77;;;-3.20;99.90;;;;;;5009532;28;20115;-82
2022/12/13 09:45:20;;;;;;;46.05;23.70;;;-3.20;99.90;;;;;;5009282;28;20116;-82
2022/12/13 09:47:48;;;;;;;48.38;25.70;;;-3.10;99.90;;;;;;5009772;28;20105;-82
2022/12/13 09:50:20;;;;;;;56.33;26.42;;;-3.10;99.90;;;;;;5015644;28;20068;-82
2022/12/13 09:52:46;;;;;;;53.60;24.65;;;-3.10;99.90;;;;;;5009739;28;20041;-82
2022/12/13 09:55:29;;;;;;;54.25;25.20;;;-3.00;99.90;;;;;;5014272;28;20124;-81
2022/12/13 09:57:55;;;;;;;54.47;26.75;;;-3.00;99.90;;;;;;5012813;28;20050;-82
2022/12/13 10:00:24;;;;;;;57.78;27.08;;;-3.00;99.90;;;;;;5016364;28;20045;-82
2022/12/13 10:02:56;;;;;;;56.88;26.52;;;-2.90;99.90;;;;;;5009334;28;20681;-82
2022/12/13 10:05:27;;;;;;;54.50;25.10;;;-2.90;99.90;;;;;;5012113;28;20054;-82
2022/12/13 10:07:56;;;;;;;54.70;26.35;;;-2.80;99.90;;;;;;5009548;28;20136;-82
2022/12/13 10:10:22;;;;;;;63.63;29.20;;;-2.80;99.90;;;;;;5017460;28;20041;-82
2022/12/13 10:12:54;;;;;;;51.72;24.88;;;-2.70;99.90;;;;;;5015724;28;20064;-81
2022/12/13 10:15:21;;;;;;;54.63;27.17;;;-2.70;99.90;;;;;;5011975;28;20546;-82
2022/12/13 10:17:48;;;;;;;56.03;30.23;;;-2.60;99.90;;;;;;5021755;28;20053;-81
2022/12/13 10:20:19;;;;;;;55.70;27.48;;;-2.50;99.90;;;;;;5008682;28;20116;-82
2022/12/13 10:22:46;;;;;;;52.97;25.85;;;-0.80;99.90;;;;;;5012110;28;20048;-82
2022/12/13 10:25:12;;;;;;;57.85;27.63;;;-2.40;99.90;;;;;;5011199;28;20128;-82
2022/12/13 10:27:42;;;;;;;60.08;28.83;;;-2.40;99.90;;;;;;5011427;28;20026;-82
2022/12/13 10:30:11;;;;;;;57.35;28.67;;;-2.30;99.90;;;;;;5008685;28;20045;-82
2022/12/13 10:32:59;;;;;;;54.50;26.75;;;-2.20;99.90;;;;;;5015082;28;20400;-81
2022/12/13 10:35:35;;;;;;;55.17;28.42;;;-2.10;99.90;;;;;;5013739;28;20037;-82
2022/12/13 10:38:19;;;;;;;55.10;28.48;;;-2.00;99.90;;;;;;5008453;28;20045;-82
2022/12/13 10:40:47;;;;;;;53.58;27.25;;;-2.00;99.90;;;;;;5008822;28;20046;-82
2022/12/13 10:43:25;;;;;;;53.60;25.38;;;-1.90;99.90;;;;;;5008732;28;20077;-82
2022/12/13 10:45:57;;;;;;;52.97;26.23;;;-1.90;99.90;;;;;;5008830;28;20112;-82
2022/12/13 10:48:24;;;;;;;50.20;25.45;;;-1.80;99.90;;;;;;5008178;28;20038;-82
2022/12/13 10:51:02;;;;;;;55.28;26.30;;;-1.70;99.90;;;;;;5009870;28;20034;-82
2022/12/13 10:53:32;;;;;;;52.72;25.85;;;-1.60;99.90;;;;;;5009004;28;20443;-82
2022/12/13 10:55:58;;;;;;;49.80;25.38;;;-1.60;99.90;;;;;;5008868;28;20034;-82
2022/12/13 10:58:34;;;;;;;52.38;25.48;;;-1.50;99.90;;;;;;5008933;28;20080;-82
2022/12/13 11:01:17;;;;;;;49.92;24.27;;;-1.40;99.90;;;;;;5008786;28;20112;-82
2022/12/13 11:04:04;;;;;;;47.10;25.45;;;-1.30;99.90;;;;;;5014463;28;20045;-82
2022/12/13 11:06:45;;;;;;;47.70;24.58;;;-1.20;99.90;;;;;;5023023;28;20178;-82
2022/12/13 11:09:15;;;;;;;47.45;24.92;;;-1.10;99.90;;;;;;5007071;28;20038;-82
2022/12/13 11:11:43;;;;;;;45.20;23.98;;;-1.00;99.90;;;;;;5017019;28;20119;-82
2022/12/13 11:14:18;;;;;;;48.40;24.30;;;-0.90;99.90;;;;;;5008622;28;20045;-82
2022/12/13 11:16:56;;;;;;;54.25;24.35;;;-0.80;99.90;;;;;;5008431;28;20508;-82
2022/12/13 11:19:36;;;;;;;44.97;22.95;;;-0.70;99.90;;;;;;5020805;28;20435;-82
2022/12/13 11:22:03;;;;;;;43.55;20.73;;;-0.60;99.90;;;;;;5018780;28;20050;-82
2022/12/13 11:24:34;;;;;;;45.53;22.42;;;-0.50;99.90;;;;;;5006864;28;20112;-82
2022/12/13 11:27:25;;;;;;;43.30;21.60;;;-0.50;99.90;;;;;;5008377;28;20172;-82
2022/12/13 11:30:09;;;;;;;42.00;23.38;;;-0.30;99.90;;;;;;5008397;28;20068;-81
2022/12/13 11:33:12;;;;;;;43.35;24.05;;;-0.20;99.90;;;;;;5006482;28;20480;-82
2022/12/13 11:36:02;;;;;;;40.75;20.77;;;-0.10;99.90;;;;;;5015806;28;20049;-82
2022/12/13 11:39:12;;;;;;;45.58;22.48;;;0.00;99.90;;;;;;5023463;28;20549;-82
2022/12/13 11:42:21;;;;;;;36.78;19.35;;;0.10;99.90;;;;;;5004151;28;20061;-82
2022/12/13 11:45:08;;;;;;;40.17;20.95;;;0.20;99.90;;;;;;5004012;28;20037;-82
2022/12/13 11:48:03;;;;;;;40.25;20.50;;;0.30;99.90;;;;;;5002969;28;20046;-82
2022/12/13 11:50:34;;;;;;;39.63;20.40;;;0.50;99.90;;;;;;4984300;28;20563;-82
2022/12/13 11:53:34;;;;;;;42.78;21.90;;;0.50;99.90;;;;;;5008428;28;20034;-82
2022/12/13 11:56:22;;;;;;;40.50;21.65;;;0.60;99.90;;;;;;5007720;28;20124;-82
2022/12/13 11:59:14;;;;;;;36.80;19.88;;;0.70;99.90;;;;;;5000852;28;20049;-81
2022/12/13 12:01:39;;;;;;;39.42;19.88;;;0.80;99.90;;;;;;4994318;28;20041;-82
2022/12/13 12:04:44;;;;;;;36.28;18.83;;;0.80;99.90;;;;;;4985115;28;20049;-82
2022/12/13 12:07:12;;;;;;;35.72;20.17;;;0.90;99.90;;;;;;5000330;28;20038;-82
2022/12/13 12:09:49;;;;;;;33.50;18.40;;;0.90;99.90;;;;;;4987344;28;20729;-82
2022/12/13 12:12:31;;;;;;;37.22;19.10;;;0.90;99.90;;;;;;5002774;28;20074;-82
2022/12/13 12:15:21;;;;;;;38.38;20.20;;;1.00;99.90;;;;;;5006708;28;20085;-82
2022/12/13 12:17:47;;;;;;;37.72;19.50;;;1.00;99.90;;;;;;5015950;28;20828;-81
2022/12/13 12:20:18;;;;;;;32.22;18.60;;;1.00;99.90;;;;;;5015589;28;20041;-82
2022/12/13 12:22:56;;;;;;;32.72;17.83;;;1.10;99.90;;;;;;5013908;28;20069;-81
2022/12/13 12:25:52;;;;;;;34.72;18.55;;;1.10;99.90;;;;;;5014907;28;20080;-81
2022/12/13 12:28:24;;;;;;;33.25;18.00;;;1.20;99.90;;;;;;5010808;28;20159;-82
2022/12/13 12:31:06;;;;;;;37.65;18.92;;;1.10;99.90;;;;;;5010485;28;20100;-82
2022/12/13 12:34:01;;;;;;;36.42;19.58;;;1.00;99.90;;;;;;5011802;28;20065;-82
2022/12/13 12:36:39;;;;;;;30.77;17.45;;;1.00;99.90;;;;;;5011175;28;20096;-82
2022/12/13 12:39:24;;;;;;;32.05;17.80;;;1.00;99.90;;;;;;5025334;28;20054;-82
2022/12/13 12:42:23;;;;;;;37.10;18.80;;;1.00;99.90;;;;;;5015744;28;20132;-82
2022/12/13 12:44:52;;;;;;;31.00;17.95;;;1.00;99.90;;;;;;5017862;28;20464;-81
2022/12/13 12:47:37;;;;;;;34.80;18.73;;;0.90;99.90;;;;;;5014378;28;20034;-84
2022/12/13 12:50:25;;;;;;;30.77;16.98;;;0.90;99.90;;;;;;5005016;28;20571;-84
2022/12/13 12:53:09;;;;;;;36.67;18.83;;;0.90;99.90;;;;;;5015084;28;20488;-84